Terminal Aerodrome Forecast
Issued by NWS Tampa Bay Area, FL

Home | Current Version | Previous Version | Text Only | Print | Product List | Glossary On
Versions: 1 2 3 4 5 6 7 8 9 10 11 12 13
581
FTUS42 KTBW 271740
TAFSRQ
TAF
KSRQ 271740Z 2718/2818 27009KT P6SM SCT050 SCT250
     FM272000 28010KT P6SM SCT060 SCT250
     FM280000 32005KT P6SM SCT060
     FM280400 10004KT P6SM FEW060
     FM281400 14005KT P6SM FEW035
     FM281700 24008KT P6SM SCT050=

USA.gov is the U.S. government's official web portal to all federal, state and local government web resources and services.